Forside
METAR-TAF:

METAR-TAF

Lufthavne :

Takamatsu, Japan

Breddekreds: 34-13N, længdekreds: 134-01E, højde: 185 m

Aktuelle vejr

Denne rapport blev lavet for 5 timer og 53 minutter siden, kl. 12:00 UTC
Vind 7 kt fra sydøst
Temperatur 9°C
Fugtighed 81%
Tryk 1019 hPa
Sigt 10 km eller mere
Nogle få skyer i en højde af 3000 ft
Brudte skyer

METAR: RJOT 031200Z 14007KT 9999 FEW030 BKN/// 09/06 Q1019

Tid: 02:53 (17:53 UTC)

Vejrudsigter

Denne rapport blev lavet for 48 minutter siden, kl. 17:05 UTC
Foreløbig gælder fra 03 på 18 UTC til 05 på 00 UTC
Vind 6 kt fra sydsydøst
Sigt 10 km eller mere
Nogle få skyer i en højde af 2500 ft
Spredte skyer i en højde af 4000 ft
ændring
fra 04 på 00 UTC til 04 på 02 UTC
Vind 10 kt fra vest
ændring
fra 04 på 12 UTC til 04 på 15 UTC
Vind 6 kt fra sydsydøst
ændring
fra 04 på 21 UTC til 05 på 00 UTC
Vind 8 kt fra vestnordvest

TAF: RJOT 031705Z 0318/0500 15006KT 9999 FEW025 SCT040 BECMG 0400/0402 26010KT BECMG 0412/0415 15006KT BECMG 0421/0500 29008KT

Vejrobservationer og prognoser fra mere end 4000 lufthavne (METAR og TAF).

De gule og røde prikker repræsenterer de meteorologiske stationer.

Flyt musen over at se navnet på stationen.

Så klik over at se vejr observationer og prognoser.

At skifte det kort: Klik på de grønne knapper med et sort kors for at zoome ind; på den grønne knap med en bindestreg for at zoome ud; eller på de grønne pile for tilstødende kort.


METAR-TAF: